Time;durP1;ratioP1;P1;durP2;ratioP2;P2;SDS_P1;SDS_P2;PMS_P1;PMS_P2;Temp;Humidity;BMP_temperature;BMP_pressure;BME280_temperature;BME280_humidity;BME280_pressure;Samples;Min_cycle;Max_cycle;Signal;HPM_P1;HPM_P2
2022/11/13 00:00:12;;;;;;;31.88;26.05;;;14.00;1.00;;;;;;5031848;28;20033;-61
2022/11/13 00:02:38;;;;;;;29.95;24.85;;;14.00;1.00;;;;;;5031736;28;20357;-61
2022/11/13 00:05:04;;;;;;;31.60;26.17;;;14.00;1.00;;;;;;5030425;28;20028;-61
2022/11/13 00:07:30;;;;;;;29.40;24.42;;;13.70;1.00;;;;;;5031599;28;20029;-61
2022/11/13 00:09:55;;;;;;;28.88;25.13;;;13.80;1.00;;;;;;5031676;28;20030;-61
2022/11/13 00:12:21;;;;;;;28.58;24.00;;;13.80;1.00;;;;;;5030232;28;20038;-61
2022/11/13 00:14:46;;;;;;;30.67;23.38;;;13.90;1.00;;;;;;5031522;28;20040;-61
2022/11/13 00:17:12;;;;;;;29.80;23.40;;;13.90;1.00;;;;;;5031584;28;20025;-61
2022/11/13 00:19:37;;;;;;;28.55;22.58;;;13.90;1.00;;;;;;5031904;28;20083;-61
2022/11/13 00:22:03;;;;;;;27.58;22.23;;;13.90;1.00;;;;;;5030614;28;20360;-60
2022/11/13 00:24:29;;;;;;;27.17;22.52;;;14.00;1.00;;;;;;5028745;28;20076;-61
2022/11/13 00:26:54;;;;;;;26.70;21.67;;;14.00;1.00;;;;;;5037366;28;20497;-61
2022/11/13 00:29:20;;;;;;;25.90;22.25;;;14.00;1.00;;;;;;5030226;28;20083;-61
2022/11/13 00:31:45;;;;;;;24.80;21.85;;;14.00;1.00;;;;;;5033807;28;20037;-61
2022/11/13 00:34:11;;;;;;;30.65;23.15;;;14.00;1.00;;;;;;5038610;28;20386;-61
2022/11/13 00:36:36;;;;;;;26.30;22.08;;;14.00;1.00;;;;;;5054135;28;20112;-61
2022/11/13 00:39:02;;;;;;;26.27;21.30;;;13.90;1.00;;;;;;5049548;28;20027;-61
2022/11/13 00:41:28;;;;;;;30.33;22.02;;;14.00;1.00;;;;;;5036604;28;20021;-61
2022/11/13 00:43:54;;;;;;;25.70;22.25;;;13.90;1.00;;;;;;5046768;28;20660;-61
2022/11/13 00:46:19;;;;;;;29.92;21.95;;;14.00;1.00;;;;;;5025474;28;20025;-61
2022/11/13 00:48:45;;;;;;;25.65;22.38;;;13.90;1.00;;;;;;5035166;28;20068;-61
2022/11/13 00:51:11;;;;;;;31.48;22.52;;;13.90;1.00;;;;;;5042723;28;20426;-61
2022/11/13 00:53:36;;;;;;;28.52;21.83;;;13.90;1.00;;;;;;5041011;28;20037;-61
2022/11/13 00:56:02;;;;;;;28.85;21.50;;;14.00;1.00;;;;;;5035115;28;20044;-61
2022/11/13 00:58:28;;;;;;;33.00;21.70;;;14.00;1.00;;;;;;5035221;28;20360;-61
2022/11/13 01:00:54;;;;;;;28.60;22.50;;;14.00;1.00;;;;;;5035073;28;20026;-61
2022/11/13 01:03:20;;;;;;;27.88;21.42;;;14.00;1.00;;;;;;5035310;28;20029;-61
2022/11/13 01:05:46;;;;;;;27.73;20.92;;;14.00;1.00;;;;;;5035039;28;20509;-61
2022/11/13 01:08:13;;;;;;;26.73;20.67;;;14.00;1.00;;;;;;5041785;28;20025;-61
2022/11/13 01:10:46;;;;;;;28.25;20.52;;;14.00;1.00;;;;;;5041526;28;20124;-61
2022/11/13 01:13:12;;;;;;;25.45;20.08;;;13.90;1.00;;;;;;5034956;28;20408;-61
2022/11/13 01:15:39;;;;;;;26.67;20.25;;;13.90;1.00;;;;;;5034600;28;20108;-61
2022/11/13 01:18:04;;;;;;;25.55;20.58;;;13.90;1.00;;;;;;5031668;28;20018;-61
2022/11/13 01:20:31;;;;;;;32.15;21.23;;;13.80;1.00;;;;;;5033245;28;20026;-61
2022/11/13 01:22:57;;;;;;;22.25;19.85;;;13.90;1.00;;;;;;5031399;28;20029;-61
2022/11/13 01:25:23;;;;;;;26.40;20.63;;;13.90;1.00;;;;;;5034681;28;20367;-61
2022/11/13 01:27:48;;;;;;;27.80;20.95;;;14.00;1.00;;;;;;5034299;28;20082;-61
2022/11/13 01:30:14;;;;;;;25.60;20.35;;;13.90;1.00;;;;;;5034392;28;20226;-61
2022/11/13 01:32:40;;;;;;;25.92;20.15;;;13.90;1.00;;;;;;5034639;28;20034;-61
2022/11/13 01:35:06;;;;;;;24.15;19.63;;;14.00;1.00;;;;;;5034448;28;20383;-61
2022/11/13 01:37:31;;;;;;;26.77;19.83;;;13.90;1.00;;;;;;5034319;28;20022;-61
2022/11/13 01:39:57;;;;;;;24.08;18.52;;;14.00;1.00;;;;;;5034487;28;20029;-61
2022/11/13 01:42:22;;;;;;;22.23;18.33;;;14.00;1.00;;;;;;5041786;28;20048;-61
2022/11/13 01:44:55;;;;;;;18.40;16.15;;;14.00;1.00;;;;;;5040892;28;20113;-61
2022/11/13 01:47:23;;;;;;;20.25;15.63;;;13.90;1.00;;;;;;5034096;28;20041;-61
2022/11/13 01:49:53;;;;;;;21.35;15.75;;;13.90;1.00;;;;;;5034412;28;20017;-61
2022/11/13 01:52:29;;;;;;;17.13;15.27;;;13.90;1.00;;;;;;5034064;28;20052;-61
2022/11/13 01:55:01;;;;;;;19.20;14.52;;;13.90;1.00;;;;;;5034239;28;20025;-60
2022/11/13 01:57:27;;;;;;;18.83;14.85;;;13.90;1.00;;;;;;5034099;28;20034;-61
2022/11/13 01:59:59;;;;;;;20.05;15.70;;;13.80;1.00;;;;;;5034230;28;20075;-61
2022/11/13 02:02:25;;;;;;;18.48;14.32;;;13.90;1.00;;;;;;5033969;28;20041;-61
2022/11/13 02:04:50;;;;;;;16.98;12.75;;;13.80;1.00;;;;;;5032869;28;20433;-61
2022/11/13 02:07:19;;;;;;;15.85;13.23;;;13.80;1.00;;;;;;5032706;28;20021;-61
2022/11/13 02:09:49;;;;;;;17.95;13.98;;;13.70;1.00;;;;;;5033066;28;20372;-61
2022/11/13 02:12:20;;;;;;;18.35;13.45;;;13.70;1.00;;;;;;5033049;28;20049;-61
2022/11/13 02:14:50;;;;;;;15.02;13.40;;;13.70;1.00;;;;;;5024668;28;20419;-61
2022/11/13 02:17:24;;;;;;;17.33;13.68;;;13.70;1.00;;;;;;5033071;28;20025;-61
2022/11/13 02:19:54;;;;;;;16.70;13.13;;;13.70;1.00;;;;;;5032997;28;20054;-61
2022/11/13 02:22:41;;;;;;;16.02;13.85;;;13.70;1.00;;;;;;5033318;28;20031;-61
2022/11/13 02:25:09;;;;;;;14.60;12.10;;;13.60;1.00;;;;;;5032948;28;20029;-61
2022/11/13 02:27:36;;;;;;;18.17;13.48;;;13.60;1.00;;;;;;5033220;28;20060;-61
2022/11/13 02:30:14;;;;;;;16.60;13.25;;;13.60;1.00;;;;;;5032694;28;20025;-61
2022/11/13 02:32:44;;;;;;;15.82;12.70;;;13.60;1.00;;;;;;5032987;28;20021;-61
2022/11/13 02:35:12;;;;;;;18.70;14.30;;;13.60;1.00;;;;;;5032524;28;20087;-61
2022/11/13 02:37:37;;;;;;;14.85;12.85;;;13.60;1.00;;;;;;5032769;28;20022;-61
2022/11/13 02:40:03;;;;;;;17.50;12.65;;;13.50;1.00;;;;;;5032816;28;20517;-61
2022/11/13 02:42:29;;;;;;;17.25;14.30;;;13.50;1.00;;;;;;5032404;28;20041;-61
2022/11/13 02:44:54;;;;;;;16.85;12.73;;;13.50;1.00;;;;;;5032961;28;20026;-61
2022/11/13 02:47:20;;;;;;;18.08;13.70;;;13.50;1.00;;;;;;5032000;28;20120;-61
2022/11/13 02:49:46;;;;;;;16.02;12.55;;;13.50;1.00;;;;;;5032522;28;20036;-61
2022/11/13 02:52:11;;;;;;;15.18;12.20;;;13.50;1.00;;;;;;5031970;28;20067;-61
2022/11/13 02:54:37;;;;;;;13.68;11.43;;;13.50;1.00;;;;;;5031906;28;20053;-61
2022/11/13 02:57:02;;;;;;;14.73;12.02;;;13.50;1.00;;;;;;5032284;28;20017;-61
2022/11/13 02:59:28;;;;;;;15.07;12.13;;;13.50;1.00;;;;;;5032211;28;20101;-61
2022/11/13 03:01:54;;;;;;;13.93;12.35;;;13.50;1.00;;;;;;5032346;28;20368;-61
2022/11/13 03:04:19;;;;;;;18.13;12.70;;;13.50;1.00;;;;;;5032600;28;20549;-61
2022/11/13 03:06:45;;;;;;;16.30;11.85;;;13.50;1.00;;;;;;5033414;28;20086;-61
2022/11/13 03:09:11;;;;;;;14.82;12.60;;;13.50;1.00;;;;;;5033045;28;20021;-61
2022/11/13 03:11:36;;;;;;;15.95;12.32;;;13.60;1.00;;;;;;5032416;28;20025;-61
2022/11/13 03:14:02;;;;;;;16.73;12.07;;;13.60;1.00;;;;;;5032384;28;20033;-61
2022/11/13 03:16:27;;;;;;;13.90;12.27;;;13.60;1.00;;;;;;5032415;28;20028;-61
2022/11/13 03:18:54;;;;;;;14.57;11.73;;;13.60;1.00;;;;;;5027998;28;20185;-61
2022/11/13 03:21:20;;;;;;;14.25;12.27;;;13.70;1.00;;;;;;5032564;28;20101;-61
2022/11/13 03:23:46;;;;;;;14.80;11.65;;;13.60;1.00;;;;;;5032502;28;20463;-61
2022/11/13 03:26:14;;;;;;;16.63;12.15;;;13.60;1.00;;;;;;5032182;28;20034;-61
2022/11/13 03:28:40;;;;;;;14.90;13.00;;;13.70;1.00;;;;;;5032001;28;20029;-61
2022/11/13 03:31:05;;;;;;;14.77;12.35;;;13.60;1.00;;;;;;5032070;28;20038;-61
2022/11/13 03:33:32;;;;;;;16.33;12.98;;;13.60;1.00;;;;;;5032292;28;20092;-61
2022/11/13 03:35:57;;;;;;;13.60;10.93;;;13.60;1.00;;;;;;5032219;28;20036;-61
2022/11/13 03:38:23;;;;;;;15.80;11.98;;;13.50;1.00;;;;;;5032503;28;20022;-61
2022/11/13 03:40:49;;;;;;;14.07;11.23;;;13.60;1.00;;;;;;5018272;28;20026;-61
2022/11/13 03:43:15;;;;;;;13.65;11.40;;;13.60;1.00;;;;;;5032294;28;20371;-61
2022/11/13 03:45:45;;;;;;;14.52;11.35;;;13.60;1.00;;;;;;5032380;28;20025;-61
2022/11/13 03:48:11;;;;;;;14.68;11.80;;;13.60;1.00;;;;;;5032146;28;20050;-61
2022/11/13 03:50:36;;;;;;;15.25;11.43;;;13.60;1.00;;;;;;5031697;28;20041;-61
2022/11/13 03:53:02;;;;;;;13.43;11.13;;;13.60;1.00;;;;;;5032132;28;20340;-61
2022/11/13 03:55:28;;;;;;;14.63;10.90;;;13.60;1.00;;;;;;5045995;28;20032;-60
2022/11/13 03:57:54;;;;;;;12.73;11.07;;;13.60;1.00;;;;;;5031922;28;20025;-60
2022/11/13 04:00:20;;;;;;;15.48;11.32;;;13.60;1.00;;;;;;5031923;28;20455;-61
2022/11/13 04:02:46;;;;;;;14.13;11.18;;;13.60;1.00;;;;;;5030547;28;20032;-60
2022/11/13 04:05:11;;;;;;;13.95;11.05;;;13.60;1.00;;;;;;5029814;28;20028;-60
2022/11/13 04:07:37;;;;;;;13.63;11.07;;;13.60;1.00;;;;;;5031761;28;20025;-61
2022/11/13 04:10:03;;;;;;;14.20;11.45;;;13.60;1.00;;;;;;5031878;28;20391;-61
2022/11/13 04:12:28;;;;;;;13.07;10.10;;;13.60;1.00;;;;;;5031544;28;20033;-61
2022/11/13 04:14:54;;;;;;;12.77;10.90;;;13.60;1.00;;;;;;5030560;28;20029;-60
2022/11/13 04:17:20;;;;;;;13.85;10.48;;;13.50;1.00;;;;;;5017471;28;20022;-60
2022/11/13 04:19:45;;;;;;;11.25;10.13;;;13.60;1.00;;;;;;5031844;28;20025;-60
2022/11/13 04:22:11;;;;;;;11.40;10.20;;;13.60;1.00;;;;;;5031548;28;20035;-60
2022/11/13 04:24:37;;;;;;;12.93;11.00;;;13.60;1.00;;;;;;5031360;28;20463;-60
2022/11/13 04:27:03;;;;;;;11.55;10.35;;;13.60;1.00;;;;;;5031755;28;20033;-60
2022/11/13 04:29:28;;;;;;;12.70;10.88;;;13.60;1.00;;;;;;5031791;28;20044;-60
2022/11/13 04:31:54;;;;;;;11.63;10.43;;;13.50;1.00;;;;;;5031467;28;20039;-60
2022/11/13 04:34:19;;;;;;;11.18;9.95;;;13.50;1.00;;;;;;5031823;28;20483;-60
2022/11/13 04:36:45;;;;;;;12.02;10.15;;;13.60;1.00;;;;;;5030092;28;20139;-60
2022/11/13 04:39:10;;;;;;;10.80;9.70;;;13.50;1.00;;;;;;5031598;28;20026;-60
2022/11/13 04:44:20;;;;;;;13.30;10.70;;;13.50;1.00;;;;;;5020067;28;20067;-60
2022/11/13 04:46:46;;;;;;;12.73;10.00;;;13.50;1.00;;;;;;5031330;28;20268;-60
2022/11/13 04:49:11;;;;;;;13.27;10.63;;;13.40;1.00;;;;;;5029664;28;20450;-60
2022/11/13 04:51:37;;;;;;;15.50;11.30;;;13.40;1.00;;;;;;5031330;28;20200;-60
2022/11/13 04:54:03;;;;;;;13.98;10.60;;;13.40;1.00;;;;;;5034509;28;20026;-60
2022/11/13 04:56:28;;;;;;;12.35;10.02;;;13.40;1.00;;;;;;5030881;28;20036;-60
2022/11/13 04:58:54;;;;;;;11.80;10.02;;;13.30;1.00;;;;;;5031118;28;20024;-60
2022/11/13 05:01:19;;;;;;;14.38;11.40;;;13.30;1.00;;;;;;5030932;28;20036;-60
2022/11/13 05:03:45;;;;;;;14.60;10.00;;;13.40;1.00;;;;;;5031038;28;20045;-60
2022/11/13 05:06:11;;;;;;;11.23;9.82;;;13.30;1.00;;;;;;5031020;28;20018;-60
2022/11/13 05:08:36;;;;;;;15.48;10.05;;;13.30;1.00;;;;;;5030908;28;20072;-60
2022/11/13 05:11:02;;;;;;;11.45;9.50;;;13.30;1.00;;;;;;5062944;28;20121;-60
2022/11/13 05:13:35;;;;;;;12.20;9.80;;;13.30;1.00;;;;;;5031100;28;20135;-60
2022/11/13 05:16:11;;;;;;;11.15;8.68;;;13.30;1.00;;;;;;5032035;28;20017;-60
2022/11/13 05:18:38;;;;;;;13.10;9.75;;;13.30;1.00;;;;;;5032175;28;20491;-60
2022/11/13 05:21:05;;;;;;;11.65;9.43;;;13.30;1.00;;;;;;5028790;28;20018;-60
2022/11/13 05:23:32;;;;;;;14.75;9.45;;;13.30;1.00;;;;;;5034325;28;20026;-60
2022/11/13 05:26:09;;;;;;;12.32;9.38;;;13.20;1.00;;;;;;5034662;28;20499;-59
2022/11/13 05:28:35;;;;;;;11.40;9.48;;;13.20;1.00;;;;;;5034479;28;20021;-60
2022/11/13 05:31:11;;;;;;;11.32;9.15;;;13.20;1.00;;;;;;5034559;28;20367;-60
2022/11/13 05:33:38;;;;;;;10.27;9.20;;;13.20;1.00;;;;;;5034693;28;20089;-60
2022/11/13 05:36:07;;;;;;;12.50;9.88;;;13.20;1.00;;;;;;5034683;28;20022;-60
2022/11/13 05:38:33;;;;;;;11.88;9.40;;;13.20;1.00;;;;;;5034146;28;20509;-60
2022/11/13 05:41:12;;;;;;;11.73;9.35;;;13.20;1.00;;;;;;5034278;28;20036;-60
2022/11/13 05:43:38;;;;;;;11.27;9.10;;;13.20;1.00;;;;;;5033984;28;20379;-60
2022/11/13 05:46:07;;;;;;;11.68;9.80;;;13.20;1.00;;;;;;5034338;28;20037;-60
2022/11/13 05:48:34;;;;;;;12.32;10.52;;;13.30;1.00;;;;;;5034141;28;20136;-60
2022/11/13 05:51:05;;;;;;;11.05;9.55;;;13.20;1.00;;;;;;5034020;28;20140;-60
2022/11/13 05:53:32;;;;;;;12.43;9.75;;;13.20;1.00;;;;;;5034085;28;20410;-60
2022/11/13 05:56:22;;;;;;;10.85;9.30;;;13.30;1.00;;;;;;5032743;28;20029;-60
2022/11/13 05:58:49;;;;;;;11.80;8.93;;;13.30;1.00;;;;;;5029053;28;20037;-60
2022/11/13 06:01:25;;;;;;;12.00;8.75;;;13.20;1.00;;;;;;5033826;28;20029;-60
2022/11/13 06:03:51;;;;;;;13.52;9.18;;;13.20;1.00;;;;;;5033979;28;20507;-60
2022/11/13 06:06:19;;;;;;;11.60;9.43;;;13.10;1.00;;;;;;5033890;28;20029;-60
2022/11/13 06:08:47;;;;;;;9.80;7.93;;;13.10;1.00;;;;;;5033751;28;20033;-60
2022/11/13 06:11:15;;;;;;;10.82;8.43;;;13.20;1.00;;;;;;5033451;28;20113;-60
2022/11/13 06:13:41;;;;;;;9.48;8.57;;;13.10;1.00;;;;;;5032500;28;20463;-60
2022/11/13 06:16:15;;;;;;;11.20;9.18;;;13.10;1.00;;;;;;5033454;28;20029;-60
2022/11/13 06:18:42;;;;;;;12.32;9.25;;;13.10;1.00;;;;;;5033988;28;20026;-60
2022/11/13 06:21:11;;;;;;;10.57;8.13;;;13.00;1.00;;;;;;5033728;28;20344;-60
2022/11/13 06:23:38;;;;;;;10.18;8.50;;;13.00;1.00;;;;;;5033653;28;20109;-60
2022/11/13 06:26:17;;;;;;;13.43;9.05;;;13.00;1.00;;;;;;5033458;28;20075;-61
2022/11/13 06:28:43;;;;;;;9.43;7.70;;;13.00;1.00;;;;;;5032599;28;20018;-60
2022/11/13 06:31:11;;;;;;;9.00;7.18;;;13.00;1.00;;;;;;5033137;28;20467;-60
2022/11/13 06:33:38;;;;;;;10.23;8.27;;;13.00;1.00;;;;;;5033301;28;20033;-60
2022/11/13 06:36:06;;;;;;;9.35;7.78;;;13.00;1.00;;;;;;5031828;28;20463;-60
2022/11/13 06:38:33;;;;;;;10.30;8.18;;;13.00;1.00;;;;;;5033313;28;20022;-60
2022/11/13 06:40:59;;;;;;;9.10;7.60;;;13.00;1.00;;;;;;5033368;28;20056;-60
2022/11/13 06:43:26;;;;;;;9.35;7.60;;;13.00;1.00;;;;;;5031871;28;20025;-61
2022/11/13 06:45:52;;;;;;;10.07;7.63;;;13.00;1.00;;;;;;5033337;28;20056;-61
2022/11/13 06:48:18;;;;;;;10.63;8.40;;;13.00;1.00;;;;;;5032987;28;20079;-60
2022/11/13 06:50:43;;;;;;;11.27;8.38;;;13.00;1.00;;;;;;5033090;28;20038;-61
2022/11/13 06:53:09;;;;;;;11.68;8.30;;;13.00;1.00;;;;;;5032784;28;20057;-60
2022/11/13 06:55:34;;;;;;;9.52;8.52;;;13.00;1.00;;;;;;5033018;28;20022;-60
2022/11/13 06:58:00;;;;;;;11.60;7.90;;;13.00;1.00;;;;;;5033003;28;20037;-60
2022/11/13 07:00:26;;;;;;;14.15;8.85;;;13.00;1.00;;;;;;5032814;28;20018;-60
2022/11/13 07:02:51;;;;;;;9.27;7.72;;;13.00;1.00;;;;;;5031270;28;20482;-60
2022/11/13 07:05:17;;;;;;;10.07;7.88;;;13.00;1.00;;;;;;5033088;28;20115;-61
2022/11/13 07:07:42;;;;;;;10.43;8.95;;;13.00;1.00;;;;;;5032690;28;20017;-61
2022/11/13 07:10:08;;;;;;;9.02;7.88;;;13.00;1.00;;;;;;5032504;28;20029;-61
2022/11/13 07:12:34;;;;;;;8.88;7.88;;;13.10;1.00;;;;;;5032548;28;20033;-60
2022/11/13 07:14:59;;;;;;;9.32;7.38;;;13.10;1.00;;;;;;5032805;28;20033;-60
2022/11/13 07:17:27;;;;;;;10.20;7.88;;;13.10;1.00;;;;;;5032553;28;20387;-60
2022/11/13 07:19:53;;;;;;;11.25;8.50;;;13.10;1.00;;;;;;5035055;28;20030;-60
2022/11/13 07:22:18;;;;;;;10.85;8.30;;;13.10;1.00;;;;;;5031628;28;20218;-60
2022/11/13 07:24:44;;;;;;;10.82;8.40;;;13.20;1.00;;;;;;5034097;28;20029;-60
2022/11/13 07:27:10;;;;;;;19.70;13.45;;;13.10;1.00;;;;;;5034140;28;20121;-60
2022/11/13 07:29:35;;;;;;;17.80;11.95;;;13.10;1.00;;;;;;5036424;28;20072;-60
2022/11/13 07:32:01;;;;;;;11.88;10.60;;;13.10;1.00;;;;;;5032538;28;20040;-60
2022/11/13 07:34:26;;;;;;;14.32;9.95;;;13.20;1.00;;;;;;5036334;28;20505;-60
2022/11/13 07:36:52;;;;;;;11.52;9.90;;;13.20;1.00;;;;;;5032912;28;20094;-60
2022/11/13 07:39:18;;;;;;;11.02;9.50;;;13.20;1.00;;;;;;5034708;28;20030;-61
2022/11/13 07:41:43;;;;;;;10.90;8.82;;;13.20;1.00;;;;;;5018159;28;20021;-61
2022/11/13 07:44:09;;;;;;;12.38;8.38;;;13.30;1.00;;;;;;5032452;28;20117;-60
2022/11/13 07:46:35;;;;;;;12.50;8.35;;;13.20;1.00;;;;;;5031957;28;20463;-60
2022/11/13 07:49:00;;;;;;;9.75;8.43;;;13.20;1.00;;;;;;5031934;28;20041;-60
2022/11/13 07:51:26;;;;;;;12.57;8.50;;;13.20;1.00;;;;;;5031440;28;20048;-60
2022/11/13 07:53:51;;;;;;;9.80;8.30;;;13.30;1.00;;;;;;5031883;28;20044;-60
2022/11/13 07:56:17;;;;;;;11.63;8.98;;;13.30;1.00;;;;;;5031919;28;20045;-60
2022/11/13 07:58:42;;;;;;;10.88;8.48;;;13.30;1.00;;;;;;5031981;28;20028;-60
2022/11/13 08:01:09;;;;;;;9.85;8.85;;;13.30;1.00;;;;;;5031721;28;20112;-60
2022/11/13 08:03:35;;;;;;;11.82;8.77;;;13.30;1.00;;;;;;5031833;28;20076;-60
2022/11/13 08:06:06;;;;;;;9.15;8.25;;;13.30;1.00;;;;;;5031662;28;20021;-60
2022/11/13 08:08:32;;;;;;;10.63;8.40;;;13.40;1.00;;;;;;5031763;28;20030;-60
2022/11/13 08:11:03;;;;;;;10.45;8.85;;;13.30;1.00;;;;;;5031626;28;20049;-61
2022/11/13 08:13:29;;;;;;;9.73;8.82;;;13.30;1.00;;;;;;5032022;28;20029;-60
2022/11/13 08:15:58;;;;;;;11.10;8.82;;;13.30;1.00;;;;;;5031895;28;20021;-60
2022/11/13 08:18:23;;;;;;;11.02;8.23;;;13.40;1.00;;;;;;5031779;28;20018;-60
2022/11/13 08:20:49;;;;;;;9.63;7.63;;;13.40;1.00;;;;;;5031502;28;20407;-60
2022/11/13 08:23:14;;;;;;;11.00;8.75;;;13.40;1.00;;;;;;5031658;28;20010;-60
2022/11/13 08:25:40;;;;;;;10.68;8.13;;;13.40;1.00;;;;;;5031277;28;20387;-60
2022/11/13 08:28:06;;;;;;;11.70;8.38;;;13.40;1.00;;;;;;5036075;28;20105;-60
2022/11/13 08:30:32;;;;;;;12.20;9.05;;;13.50;1.00;;;;;;5040923;28;20088;-61
2022/11/13 08:32:57;;;;;;;11.20;8.60;;;13.50;1.00;;;;;;5030196;28;20018;-60
2022/11/13 08:35:23;;;;;;;10.25;8.90;;;13.50;1.00;;;;;;5031447;28;20112;-60
2022/11/13 08:37:49;;;;;;;12.07;8.75;;;13.50;1.00;;;;;;5031473;28;20118;-60
2022/11/13 08:40:14;;;;;;;10.50;9.05;;;13.50;1.00;;;;;;5031341;28;20116;-60
2022/11/13 08:42:40;;;;;;;10.55;8.77;;;13.50;1.00;;;;;;5031476;28;20131;-60
2022/11/13 08:45:06;;;;;;;12.02;9.13;;;13.40;1.00;;;;;;5031094;28;20388;-59
2022/11/13 08:47:32;;;;;;;13.07;8.60;;;13.50;1.00;;;;;;5031111;28;20044;-60
2022/11/13 08:49:58;;;;;;;11.35;9.02;;;13.50;1.00;;;;;;5031181;28;20034;-59
2022/11/13 08:52:23;;;;;;;9.15;8.25;;;13.50;1.00;;;;;;5034458;28;20072;-60
2022/11/13 08:54:49;;;;;;;10.73;7.88;;;13.60;1.00;;;;;;5034971;28;20062;-60
2022/11/13 08:57:14;;;;;;;9.23;8.25;;;13.50;1.00;;;;;;5034049;28;20329;-60
2022/11/13 08:59:40;;;;;;;10.65;8.05;;;13.50;1.00;;;;;;5035064;28;20117;-60
2022/11/13 09:02:06;;;;;;;12.05;7.82;;;13.60;1.00;;;;;;5032826;28;20499;-59
2022/11/13 09:04:32;;;;;;;14.80;10.05;;;13.60;1.00;;;;;;5036326;28;20021;-60
2022/11/13 09:06:57;;;;;;;11.45;8.60;;;13.50;1.00;;;;;;5034208;28;20036;-61
2022/11/13 09:09:23;;;;;;;11.68;8.15;;;13.60;1.00;;;;;;5036448;28;20049;-60
2022/11/13 09:11:49;;;;;;;9.30;8.07;;;13.60;1.00;;;;;;5048118;28;20047;-60
2022/11/13 09:14:15;;;;;;;10.50;7.72;;;13.60;1.00;;;;;;5049928;28;20362;-60
2022/11/13 09:16:40;;;;;;;9.40;7.57;;;13.70;1.00;;;;;;5043904;28;20087;-60
2022/11/13 09:19:06;;;;;;;10.45;7.78;;;13.70;1.00;;;;;;5031931;28;20030;-59
2022/11/13 09:21:32;;;;;;;9.98;7.30;;;13.70;1.00;;;;;;5027275;28;20057;-60
2022/11/13 09:23:57;;;;;;;7.65;6.85;;;13.60;1.00;;;;;;5034767;28;20029;-59
2022/11/13 09:26:23;;;;;;;10.07;8.80;;;13.70;1.00;;;;;;5034683;28;20025;-60
2022/11/13 09:28:49;;;;;;;12.38;8.68;;;13.70;1.00;;;;;;5048863;28;20451;-60
2022/11/13 09:31:14;;;;;;;9.25;7.22;;;13.80;1.00;;;;;;5034999;28;20394;-61
2022/11/13 09:33:40;;;;;;;9.02;6.25;;;13.80;1.00;;;;;;5034511;28;20071;-60
2022/11/13 09:36:11;;;;;;;10.95;6.40;;;13.80;1.00;;;;;;5035022;28;20487;-60
2022/11/13 09:38:37;;;;;;;8.50;7.05;;;13.80;1.00;;;;;;5034669;28;20603;-60
2022/11/13 09:41:10;;;;;;;11.18;7.07;;;13.80;1.00;;;;;;5033331;28;20121;-60
2022/11/13 09:43:54;;;;;;;6.95;5.32;;;13.80;1.00;;;;;;5035025;28;20033;-60
2022/11/13 09:46:34;;;;;;;10.07;6.15;;;13.80;1.00;;;;;;5045038;28;20061;-60
2022/11/13 09:49:13;;;;;;;7.53;6.07;;;13.80;1.00;;;;;;5034039;28;20046;-60
2022/11/13 09:51:39;;;;;;;7.85;6.65;;;13.80;1.00;;;;;;5034311;28;20037;-60
2022/11/13 09:54:08;;;;;;;8.88;6.68;;;13.90;1.00;;;;;;5034530;28;20021;-60
2022/11/13 09:57:11;;;;;;;8.70;6.65;;;13.90;1.00;;;;;;5034308;28;20033;-60
2022/11/13 10:00:03;;;;;;;7.13;6.32;;;13.90;1.00;;;;;;5020775;28;20024;-60
2022/11/13 10:03:11;;;;;;;8.50;6.55;;;14.00;1.00;;;;;;5028932;28;20040;-60
2022/11/13 10:05:51;;;;;;;7.22;6.25;;;13.90;1.00;;;;;;5033546;28;20037;-60
2022/11/13 10:08:23;;;;;;;9.07;6.55;;;13.90;1.00;;;;;;5022118;28;20162;-60
2022/11/13 10:10:50;;;;;;;8.48;6.47;;;14.00;1.00;;;;;;5033390;28;20051;-60
2022/11/13 10:13:33;;;;;;;7.75;6.35;;;13.90;1.00;;;;;;5032274;28;20375;-60
2022/11/13 10:16:20;;;;;;;8.05;6.75;;;14.00;1.00;;;;;;5034036;28;20024;-60
2022/11/13 10:18:48;;;;;;;12.35;6.88;;;14.00;1.00;;;;;;5043036;28;20163;-61
2022/11/13 10:21:38;;;;;;;6.95;6.25;;;14.10;1.00;;;;;;5038004;28;20391;-60
2022/11/13 10:24:31;;;;;;;9.25;6.25;;;14.10;1.00;;;;;;5033731;28;20355;-60
2022/11/13 10:26:58;;;;;;;9.27;6.68;;;14.10;1.00;;;;;;5033401;28;20483;-60
2022/11/13 10:29:27;;;;;;;10.40;6.45;;;14.20;1.00;;;;;;5033491;28;20472;-60
2022/11/13 10:31:53;;;;;;;7.30;5.85;;;14.20;1.00;;;;;;5033563;28;20061;-61
2022/11/13 10:34:19;;;;;;;7.38;5.72;;;14.20;1.00;;;;;;5033517;28;20093;-60
2022/11/13 10:37:12;;;;;;;6.75;5.38;;;14.20;1.00;;;;;;5033510;28;20018;-60
2022/11/13 10:39:45;;;;;;;9.65;6.28;;;14.30;1.00;;;;;;5033573;28;20420;-60
2022/11/13 10:42:28;;;;;;;6.68;5.47;;;14.20;1.00;;;;;;5033448;28;20013;-60
2022/11/13 10:44:58;;;;;;;8.05;6.18;;;14.20;1.00;;;;;;5033300;28;20432;-60
2022/11/13 10:47:26;;;;;;;9.10;6.93;;;14.30;1.00;;;;;;5033060;28;20068;-60
2022/11/13 10:49:53;;;;;;;6.95;5.30;;;14.40;1.00;;;;;;5033192;28;20032;-61
2022/11/13 10:52:27;;;;;;;7.80;5.60;;;14.40;1.00;;;;;;5032956;28;20044;-61
2022/11/13 10:55:39;;;;;;;5.88;5.28;;;14.40;1.00;;;;;;5031815;28;20320;-60
2022/11/13 10:58:16;;;;;;;7.05;5.65;;;14.40;1.00;;;;;;5021767;28;20545;-60
2022/11/13 11:00:46;;;;;;;7.30;5.28;;;14.50;1.00;;;;;;5046865;28;20405;-61
2022/11/13 11:03:23;;;;;;;8.73;6.03;;;14.50;1.00;;;;;;5031611;28;20104;-61
2022/11/13 11:05:57;;;;;;;8.70;5.43;;;14.50;1.00;;;;;;5032994;28;20087;-60
2022/11/13 11:08:34;;;;;;;6.82;5.20;;;14.50;1.00;;;;;;5032781;28;20083;-61
2022/11/13 11:14:21;;;;;;;6.57;5.00;;;14.60;1.00;;;;;;5032803;28;20056;-61
2022/11/13 11:16:50;;;;;;;7.43;5.32;;;14.50;1.00;;;;;;5032824;28;20030;-60
2022/11/13 11:19:19;;;;;;;6.70;5.32;;;14.60;1.00;;;;;;5045801;28;20028;-60
2022/11/13 11:21:47;;;;;;;9.00;6.35;;;14.60;1.00;;;;;;5028470;28;20030;-60
2022/11/13 11:24:19;;;;;;;7.78;5.15;;;14.60;1.00;;;;;;5032497;28;20022;-60
2022/11/13 11:27:13;;;;;;;7.95;5.90;;;14.70;1.00;;;;;;5032669;28;20451;-60
2022/11/13 11:29:46;;;;;;;13.02;5.43;;;14.70;1.00;;;;;;5032668;28;20025;-60
2022/11/13 11:32:17;;;;;;;8.38;6.07;;;14.60;1.00;;;;;;5031503;28;20152;-60
2022/11/13 11:34:49;;;;;;;8.23;6.30;;;14.60;1.00;;;;;;5032624;28;20018;-60
2022/11/13 11:37:18;;;;;;;8.13;5.95;;;14.70;1.00;;;;;;5032773;28;20363;-60
2022/11/13 11:39:52;;;;;;;6.10;5.50;;;14.70;1.00;;;;;;5030972;28;20475;-60
2022/11/13 11:43:00;;;;;;;7.55;5.50;;;14.70;1.00;;;;;;5019588;28;20018;-61
2022/11/13 11:45:34;;;;;;;7.25;5.13;;;14.70;1.00;;;;;;5032316;28;20371;-60
2022/11/13 11:48:03;;;;;;;9.82;4.82;;;14.80;1.00;;;;;;5032121;28;20049;-61
2022/11/13 11:50:31;;;;;;;9.77;6.30;;;14.80;1.00;;;;;;5032035;28;20045;-60
2022/11/13 11:53:15;;;;;;;6.90;6.20;;;14.80;1.00;;;;;;5032171;28;20176;-60
2022/11/13 11:55:56;;;;;;;8.05;5.60;;;14.80;1.00;;;;;;5031991;28;20073;-61
2022/11/13 11:58:43;;;;;;;8.73;7.05;;;14.90;1.00;;;;;;5032052;28;20026;-60
2022/11/13 12:01:45;;;;;;;6.85;6.15;;;14.90;1.00;;;;;;5031993;28;20017;-60
2022/11/13 12:04:25;;;;;;;10.23;6.35;;;14.90;1.00;;;;;;5030427;28;20528;-60
2022/11/13 12:06:53;;;;;;;7.10;6.00;;;14.90;1.00;;;;;;5032079;28;20029;-61
2022/11/13 12:09:28;;;;;;;7.22;6.43;;;15.00;1.00;;;;;;5031928;28;20033;-60
2022/11/13 12:12:05;;;;;;;8.82;6.90;;;14.90;1.00;;;;;;5031813;28;20192;-60
2022/11/13 12:15:03;;;;;;;10.35;7.28;;;15.00;1.00;;;;;;5031881;28;20025;-60
2022/11/13 12:17:52;;;;;;;9.63;7.03;;;15.00;1.00;;;;;;5009110;28;20517;-60
2022/11/13 12:20:30;;;;;;;8.52;6.57;;;15.00;1.00;;;;;;5019393;28;20462;-60
2022/11/13 12:23:15;;;;;;;6.57;5.70;;;15.10;1.00;;;;;;5031815;28;20360;-60
2022/11/13 12:25:50;;;;;;;6.40;5.20;;;15.20;1.00;;;;;;5031131;28;20026;-60
2022/11/13 12:28:20;;;;;;;6.53;5.93;;;15.30;1.00;;;;;;5031394;28;20438;-60
2022/11/13 12:30:52;;;;;;;6.70;5.18;;;15.40;1.00;;;;;;5031297;28;20037;-60
2022/11/13 12:33:32;;;;;;;6.70;5.10;;;15.60;1.00;;;;;;5031392;28;20048;-60
2022/11/13 12:35:58;;;;;;;6.28;5.45;;;15.60;1.00;;;;;;5031899;28;20029;-60
2022/11/13 12:38:47;;;;;;;6.03;5.53;;;15.70;1.00;;;;;;5031652;28;20029;-60
2022/11/13 12:41:31;;;;;;;9.93;7.50;;;15.80;1.00;;;;;;5031771;28;20029;-60
2022/11/13 12:44:18;;;;;;;7.10;6.38;;;15.80;1.00;;;;;;5018408;28;20029;-60
2022/11/13 12:46:44;;;;;;;13.95;7.78;;;15.70;1.00;;;;;;5031219;28;20045;-60
2022/11/13 12:49:26;;;;;;;7.10;6.22;;;15.60;1.00;;;;;;5031205;28;20115;-60
2022/11/13 12:52:03;;;;;;;7.63;6.85;;;15.60;1.00;;;;;;5031083;28;20033;-60
2022/11/13 12:54:30;;;;;;;14.82;10.35;;;15.60;1.00;;;;;;5031509;28;20018;-60
2022/11/13 12:57:17;;;;;;;12.63;9.27;;;15.50;1.00;;;;;;5031426;28;20332;-60
2022/11/13 12:59:55;;;;;;;9.30;7.07;;;15.50;1.00;;;;;;5031441;28;20026;-60
2022/11/13 13:02:23;;;;;;;8.80;7.20;;;15.50;1.00;;;;;;5031605;28;20363;-60